Station Historical Data
Daily Summary for October 31, 2017 Units:  English    Metric   Both
« Previous Day
Next Day »
Daily Weekly Monthly Yearly Custom
  High: Low: Average:
Temperature: 43.4 °F 35.5 °F 40.8 °F
Dew Point: 36.1 °F 27.4 °F 32 °F
Humidity: 89% 56% 71%
Wind Speed: 18.0mph 0.0mph 4.6mph
Wind Gust: 22.0mph - -
Wind- - WSW
Pressure: 30.20 in 29.73 in -
Precipitation: 0.00 in    
Historical Graphs
 
 
Tabular Data for October 31, 2017
Time Temperature Dew Point Pressure Wind Wind Speed Wind Gust Humidity Rainfall Rate (Hourly)
00:04 42.6 °F 34.5 °F 29.73 in WSW 1.0 mph 5.0 mph 73% 0.00 in
00:09 42.6 °F 34.5 °F 29.73 in West 2.0 mph 14.0 mph 73% 0.00 in
00:14 42.8 °F 34.7 °F 29.73 in West 3.0 mph 8.0 mph 73% 0.00 in
00:19 42.9 °F 34.5 °F 29.73 in SW 7.0 mph 9.0 mph 72% 0.00 in
00:24 43.0 °F 34.2 °F 29.73 in WSW 4.0 mph 15.0 mph 71% 0.00 in
00:29 43.1 °F 34.0 °F 29.74 in WNW 11.0 mph 12.0 mph 70% 0.00 in
00:34 43.2 °F 34.1 °F 29.74 in WSW 8.0 mph 13.0 mph 70% 0.00 in
00:44 43.2 °F 33.3 °F 29.74 in West 6.0 mph 15.0 mph 68% 0.00 in
00:49 43.2 °F 33.3 °F 29.73 in West 6.0 mph 16.0 mph 68% 0.00 in
00:54 43.3 °F 33.4 °F 29.74 in West 6.0 mph 16.0 mph 68% 0.00 in
00:59 43.4 °F 33.9 °F 29.74 in West 6.0 mph 15.0 mph 69% 0.00 in
01:09 43.2 °F 35.8 °F 29.75 in SW 5.0 mph 17.0 mph 75% 0.00 in
01:14 42.5 °F 36.1 °F 29.75 in SW 6.0 mph 17.0 mph 78% 0.00 in
01:19 41.7 °F 36.0 °F 29.76 in SW 3.0 mph 6.0 mph 80% 0.00 in
01:24 41.4 °F 36.0 °F 29.76 in West 4.0 mph 7.0 mph 81% 0.00 in
01:29 41.2 °F 36.1 °F 29.76 in West 4.0 mph 17.0 mph 82% 0.00 in
01:34 41.3 °F 35.6 °F 29.76 in West 10.0 mph 13.0 mph 80% 0.00 in
01:39 41.9 °F 34.2 °F 29.76 in NW 11.0 mph 15.0 mph 74% 0.00 in
01:44 42.4 °F 34.0 °F 29.77 in NW 4.0 mph 11.0 mph 72% 0.00 in
01:49 42.5 °F 33.4 °F 29.76 in West 5.0 mph 12.0 mph 70% 0.00 in
01:54 42.7 °F 33.2 °F 29.77 in West 6.0 mph 12.0 mph 69% 0.00 in
01:59 42.8 °F 33.0 °F 29.77 in West 6.0 mph 15.0 mph 68% 0.00 in
02:04 42.8 °F 33.0 °F 29.77 in West 8.0 mph 22.0 mph 68% 0.00 in
02:09 42.8 °F 33.0 °F 29.77 in West 8.0 mph 22.0 mph 68% 0.00 in
02:14 42.7 °F 32.9 °F 29.78 in West 7.0 mph 16.0 mph 68% 0.00 in
02:19 42.5 °F 33.0 °F 29.78 in WNW 4.0 mph 12.0 mph 69% 0.00 in
02:24 42.4 °F 32.6 °F 29.78 in WSW 5.0 mph 14.0 mph 68% 0.00 in
02:29 42.2 °F 32.4 °F 29.78 in NW 7.0 mph 14.0 mph 68% 0.00 in
02:34 42.2 °F 32.4 °F 29.79 in WNW 4.0 mph 11.0 mph 68% 0.00 in
02:39 42.2 °F 32.4 °F 29.79 in WSW 4.0 mph 10.0 mph 68% 0.00 in
02:44 42.1 °F 32.3 °F 29.79 in WNW 5.0 mph 13.0 mph 68% 0.00 in
02:49 42.1 °F 31.9 °F 29.79 in West 5.0 mph 11.0 mph 67% 0.00 in
02:54 42.1 °F 31.9 °F 29.79 in West 5.0 mph 12.0 mph 67% 0.00 in
02:59 42.1 °F 31.6 °F 29.79 in West 6.0 mph 14.0 mph 66% 0.00 in
03:04 42.1 °F 31.6 °F 29.79 in West 6.0 mph 14.0 mph 66% 0.00 in
03:09 42.1 °F 31.6 °F 29.79 in West 5.0 mph 13.0 mph 66% 0.00 in
03:14 42.2 °F 31.6 °F 29.80 in West 5.0 mph 15.0 mph 66% 0.00 in
03:19 42.2 °F 31.3 °F 29.80 in West 6.0 mph 15.0 mph 65% 0.00 in
03:24 42.2 °F 31.3 °F 29.80 in West 5.0 mph 14.0 mph 65% 0.00 in
03:29 42.4 °F 31.1 °F 29.80 in WNW 6.0 mph 14.0 mph 64% 0.00 in
03:34 42.4 °F 31.1 °F 29.80 in WSW 2.0 mph 12.0 mph 64% 0.00 in
03:39 42.4 °F 30.7 °F 29.80 in West 9.0 mph 12.0 mph 63% 0.00 in
03:44 42.4 °F 31.1 °F 29.80 in West 4.0 mph 10.0 mph 64% 0.00 in
03:49 42.3 °F 31.0 °F 29.80 in West 4.0 mph 10.0 mph 64% 0.00 in
03:54 42.3 °F 30.6 °F 29.81 in SW 6.0 mph 13.0 mph 63% 0.00 in
03:59 42.2 °F 30.5 °F 29.81 in West 5.0 mph 13.0 mph 63% 0.00 in
04:04 42.2 °F 30.5 °F 29.81 in West 5.0 mph 12.0 mph 63% 0.00 in
04:09 42.1 °F 30.4 °F 29.81 in West 5.0 mph 12.0 mph 63% 0.00 in
04:14 42.0 °F 30.3 °F 29.82 in WSW 4.0 mph 11.0 mph 63% 0.00 in
04:19 42.0 °F 30.3 °F 29.82 in WSW 4.0 mph 10.0 mph 63% 0.00 in
04:24 42.1 °F 30.4 °F 29.82 in WSW 4.0 mph 10.0 mph 63% 0.00 in
04:29 42.1 °F 30.4 °F 29.82 in WSW 4.0 mph 10.0 mph 63% 0.00 in
04:34 42.2 °F 30.5 °F 29.83 in WSW 2.0 mph 8.0 mph 63% 0.00 in
04:39 42.1 °F 30.0 °F 29.83 in WSW 4.0 mph 11.0 mph 62% 0.00 in
04:44 42.1 °F 30.0 °F 29.83 in SW 4.0 mph 10.0 mph 62% 0.00 in
04:49 42.2 °F 30.1 °F 29.83 in West 8.0 mph 11.0 mph 62% 0.00 in
04:54 42.2 °F 30.1 °F 29.83 in WSW 3.0 mph 9.0 mph 62% 0.00 in
04:59 42.2 °F 30.1 °F 29.83 in WSW 4.0 mph 10.0 mph 62% 0.00 in
05:04 42.2 °F 30.1 °F 29.83 in WSW 2.0 mph 10.0 mph 62% 0.00 in
05:09 42.1 °F 29.6 °F 29.83 in West 5.0 mph 13.0 mph 61% 0.00 in
05:14 42.2 °F 29.7 °F 29.83 in West 6.0 mph 13.0 mph 61% 0.00 in
05:19 42.2 °F 29.7 °F 29.83 in West 5.0 mph 12.0 mph 61% 0.00 in
05:24 42.2 °F 30.1 °F 29.84 in WSW 8.0 mph 11.0 mph 62% 0.00 in
05:29 42.2 °F 30.1 °F 29.84 in West 4.0 mph 11.0 mph 62% 0.00 in
05:34 42.2 °F 30.1 °F 29.84 in West 5.0 mph 11.0 mph 62% 0.00 in
05:39 42.2 °F 30.1 °F 29.84 in West 3.0 mph 10.0 mph 62% 0.00 in
05:44 42.3 °F 30.6 °F 29.84 in WNW 5.0 mph 8.0 mph 63% 0.00 in
05:49 42.4 °F 30.3 °F 29.84 in Calm   9.0 mph 62% 0.00 in
05:59 42.4 °F 30.3 °F 29.84 in WSW 4.0 mph 13.0 mph 62% 0.00 in
06:04 42.4 °F 30.3 °F 29.84 in WSW 6.0 mph 9.0 mph 62% 0.00 in
06:09 42.4 °F 30.3 °F 29.84 in West 3.0 mph 9.0 mph 62% 0.00 in
06:14 42.4 °F 30.3 °F 29.84 in West 4.0 mph 10.0 mph 62% 0.00 in
06:19 42.5 °F 30.0 °F 29.84 in West 4.0 mph 10.0 mph 61% 0.00 in
06:24 42.6 °F 29.7 °F 29.85 in West 5.0 mph 12.0 mph 60% 0.00 in
06:29 42.8 °F 29.9 °F 29.85 in WSW 7.0 mph 17.0 mph 60% 0.00 in
06:34 42.7 °F 29.8 °F 29.85 in West 2.0 mph 10.0 mph 60% 0.00 in
06:39 42.7 °F 30.2 °F 29.86 in West 6.0 mph 13.0 mph 61% 0.00 in
06:44 42.6 °F 30.1 °F 29.86 in West 10.0 mph 15.0 mph 61% 0.00 in
06:49 42.5 °F 29.6 °F 29.86 in WNW 5.0 mph 14.0 mph 60% 0.00 in
06:54 42.5 °F 30.0 °F 29.86 in West 7.0 mph 11.0 mph 61% 0.00 in
06:59 42.5 °F 30.0 °F 29.86 in SW 8.0 mph 13.0 mph 61% 0.00 in
07:04 42.5 °F 30.0 °F 29.87 in West 6.0 mph 9.0 mph 61% 0.00 in
07:09 42.5 °F 29.6 °F 29.87 in West 6.0 mph 18.0 mph 60% 0.00 in
07:14 42.6 °F 30.1 °F 29.87 in WSW 5.0 mph 12.0 mph 61% 0.00 in
07:19 42.5 °F 30.4 °F 29.87 in WSW 6.0 mph 12.0 mph 62% 0.00 in
07:24 42.5 °F 30.0 °F 29.87 in WSW 5.0 mph 12.0 mph 61% 0.00 in
07:29 42.6 °F 30.5 °F 29.87 in WSW 5.0 mph 13.0 mph 62% 0.00 in
07:34 42.5 °F 29.6 °F 29.88 in WSW 5.0 mph 13.0 mph 60% 0.00 in
07:39 42.5 °F 29.6 °F 29.88 in WSW 5.0 mph 11.0 mph 60% 0.00 in
07:44 42.6 °F 29.3 °F 29.87 in WSW 5.0 mph 12.0 mph 59% 0.00 in
07:49 42.8 °F 29.0 °F 29.88 in SW 5.0 mph 12.0 mph 58% 0.00 in
07:54 42.8 °F 29.0 °F 29.88 in WSW 2.0 mph 16.0 mph 58% 0.00 in
07:59 43.0 °F 30.1 °F 29.88 in SSW 6.0 mph 17.0 mph 60% 0.00 in
08:04 42.7 °F 33.2 °F 29.89 in SW 6.0 mph 13.0 mph 69% 0.00 in
08:09 42.0 °F 33.6 °F 29.89 in SSE 6.0 mph 13.0 mph 72% 0.00 in
08:14 40.9 °F 33.2 °F 29.89 in South 6.0 mph 16.0 mph 74% 0.00 in
08:19 39.9 °F 32.9 °F 29.90 in SSW 6.0 mph 12.0 mph 76% 0.00 in
08:24 39.1 °F 33.1 °F 29.90 in SSW 4.0 mph 7.0 mph 79% 0.00 in
08:29 38.9 °F 33.6 °F 29.90 in SSW 5.0 mph 19.0 mph 81% 0.00 in
08:34 38.8 °F 33.8 °F 29.90 in SSW 6.0 mph 19.0 mph 82% 0.00 in
08:39 38.4 °F 33.4 °F 29.91 in SSW 5.0 mph 11.0 mph 82% 0.00 in
08:44 38.2 °F 33.5 °F 29.91 in SSW 5.0 mph 14.0 mph 83% 0.00 in
08:49 38.1 °F 33.4 °F 29.91 in SSW 6.0 mph 15.0 mph 83% 0.00 in
08:54 38.4 °F 34.0 °F 29.91 in WSW 9.0 mph 12.0 mph 84% 0.00 in
08:59 38.6 °F 34.2 °F 29.92 in SW 5.0 mph 12.0 mph 84% 0.00 in
09:04 38.8 °F 34.4 °F 29.92 in SW 5.0 mph 11.0 mph 84% 0.00 in
09:09 38.8 °F 34.4 °F 29.92 in SW 6.0 mph 10.0 mph 84% 0.00 in
09:14 39.1 °F 35.0 °F 29.92 in South 6.0 mph 16.0 mph 85% 0.00 in
09:19 39.4 °F 35.3 °F 29.92 in SW 6.0 mph 12.0 mph 85% 0.00 in
09:24 39.7 °F 35.6 °F 29.93 in SW 10.0 mph 15.0 mph 85% 0.00 in
09:29 39.7 °F 35.3 °F 29.93 in SSW 3.0 mph 13.0 mph 84% 0.00 in
09:34 39.5 °F 35.1 °F 29.94 in SSW 6.0 mph 13.0 mph 84% 0.00 in
09:39 39.5 °F 35.1 °F 29.94 in SSW 5.0 mph 12.0 mph 84% 0.00 in
09:44 39.4 °F 35.0 °F 29.95 in SSW 5.0 mph 14.0 mph 84% 0.00 in
09:49 39.2 °F 34.8 °F 29.95 in SSW 7.0 mph 19.0 mph 84% 0.00 in
09:54 38.6 °F 34.2 °F 29.95 in SSW 13.0 mph 15.0 mph 84% 0.01 in
09:59 38.2 °F 34.1 °F 29.96 in WSW 5.0 mph 16.0 mph 85% 0.02 in
10:04 37.5 °F 33.1 °F 29.95 in SSW 2.0 mph 12.0 mph 84% 0.05 in
10:09 36.9 °F 32.8 °F 29.96 in SSW 5.0 mph 12.0 mph 85% 0.06 in
10:14 36.7 °F 32.9 °F 29.97 in SW 3.0 mph 11.0 mph 86% 0.07 in
10:19 36.3 °F 32.5 °F 29.97 in SW 8.0 mph 13.0 mph 86% 0.07 in
10:24 35.9 °F 32.4 °F 29.97 in SW 2.0 mph 13.0 mph 87% 0.07 in
10:29 35.6 °F 32.1 °F 29.97 in West 3.0 mph 8.0 mph 87% 0.08 in
10:34 35.5 °F 32.0 °F 29.97 in Calm   6.0 mph 87% 0.08 in
10:39 35.6 °F 32.4 °F 29.97 in SW 4.0 mph 11.0 mph 88% 0.09 in
10:44 36.1 °F 32.9 °F 29.97 in SSW 5.0 mph 17.0 mph 88% 0.10 in
10:49 36.7 °F 33.8 °F 29.97 in SSW 6.0 mph 17.0 mph 89% 0.10 in
10:54 37.2 °F 34.3 °F 29.98 in SSW 6.0 mph 15.0 mph 89% 0.10 in
10:59 37.2 °F 34.3 °F 29.98 in SSW 7.0 mph 19.0 mph 89% 0.10 in
11:04 37.2 °F 34.0 °F 29.98 in SSW 7.0 mph 19.0 mph 88% 0.08 in
11:09 37.2 °F 34.3 °F 29.99 in SW 5.0 mph 14.0 mph 89% 0.08 in
11:14 37.0 °F 34.1 °F 29.99 in SSW 6.0 mph 14.0 mph 89% 0.07 in
11:19 37.1 °F 34.2 °F 29.99 in South 2.0 mph 12.0 mph 89% 0.08 in
11:24 37.2 °F 34.3 °F 30.00 in SSW 6.0 mph 11.0 mph 89% 0.09 in
11:29 37.2 °F 34.3 °F 30.00 in SSW 2.0 mph 12.0 mph 89% 0.08 in
11:34 37.3 °F 34.4 °F 30.00 in WSW 4.0 mph 11.0 mph 89% 0.08 in
11:39 37.3 °F 34.4 °F 30.00 in WSW 7.0 mph 16.0 mph 89% 0.07 in
11:44 37.1 °F 34.2 °F 30.00 in South 7.0 mph 15.0 mph 89% 0.07 in
11:49 37.2 °F 34.3 °F 30.00 in SSW 7.0 mph 22.0 mph 89% 0.07 in
11:54 37.4 °F 34.5 °F 30.01 in SSW 7.0 mph 22.0 mph 89% 0.06 in
11:59 37.5 °F 34.6 °F 30.01 in SSW 6.0 mph 17.0 mph 89% 0.05 in
12:04 37.4 °F 34.2 °F 30.01 in SSW 6.0 mph 17.0 mph 88% 0.04 in
12:09 37.5 °F 34.6 °F 30.01 in SSW 6.0 mph 15.0 mph 89% 0.04 in
12:14 37.4 °F 34.5 °F 30.01 in SSW 9.0 mph 15.0 mph 89% 0.04 in
12:19 37.5 °F 34.6 °F 30.01 in SSW 7.0 mph 15.0 mph 89% 0.03 in
12:24 37.6 °F 34.7 °F 30.01 in SSW 7.0 mph 15.0 mph 89% 0.03 in
12:29 37.8 °F 34.8 °F 30.01 in SW 5.0 mph 15.0 mph 89% 0.03 in
12:34 37.9 °F 34.9 °F 30.02 in WSW 8.0 mph 16.0 mph 89% 0.03 in
12:39 37.8 °F 34.8 °F 30.02 in South 4.0 mph 14.0 mph 89% 0.04 in
12:44 37.5 °F 34.6 °F 30.01 in SSW 12.0 mph 19.0 mph 89% 0.03 in
12:49 37.4 °F 34.5 °F 30.01 in SSW 2.0 mph 17.0 mph 89% 0.03 in
12:54 37.4 °F 34.5 °F 30.02 in SSW 5.0 mph 17.0 mph 89% 0.03 in
12:59 37.6 °F 34.7 °F 30.01 in SW 4.0 mph 12.0 mph 89% 0.04 in
13:04 37.8 °F 34.8 °F 30.01 in SSW 5.0 mph 12.0 mph 89% 0.04 in
13:09 37.9 °F 34.9 °F 30.01 in SSW 5.0 mph 11.0 mph 89% 0.03 in
13:14 38.0 °F 35.0 °F 30.01 in SSE 9.0 mph 10.0 mph 89% 0.03 in
13:19 38.0 °F 35.0 °F 30.01 in WSW 8.0 mph 14.0 mph 89% 0.03 in
13:24 38.0 °F 35.0 °F 30.01 in SSW 7.0 mph 13.0 mph 89% 0.02 in
13:29 38.0 °F 35.0 °F 30.02 in SSW 5.0 mph 13.0 mph 89% 0.02 in
13:34 38.2 °F 35.2 °F 30.02 in SSW 2.0 mph 6.0 mph 89% 0.02 in
13:39 38.5 °F 35.5 °F 30.02 in WSW 3.0 mph 4.0 mph 89% 0.01 in
13:44 38.9 °F 35.9 °F 30.02 in Calm   3.0 mph 89% 0.01 in
13:49 39.5 °F 36.0 °F 30.02 in WNW 4.0 mph 10.0 mph 87% 0.01 in
13:54 40.3 °F 35.5 °F 30.03 in West 9.0 mph 15.0 mph 83% 0.01 in
13:59 41.1 °F 35.1 °F 30.03 in West 7.0 mph 16.0 mph 79% 0.00 in
14:04 41.5 °F 34.2 °F 30.03 in West 7.0 mph 16.0 mph 75% 0.00 in
14:09 41.7 °F 33.3 °F 30.03 in West 8.0 mph 20.0 mph 72% 0.00 in
14:14 41.8 °F 33.4 °F 30.04 in West 7.0 mph 20.0 mph 72% 0.00 in
14:19 41.8 °F 32.7 °F 30.04 in West 6.0 mph 14.0 mph 70% 0.00 in
14:24 41.8 °F 32.4 °F 30.05 in WNW 9.0 mph 17.0 mph 69% 0.00 in
14:29 41.8 °F 32.4 °F 30.05 in West 5.0 mph 17.0 mph 69% 0.00 in
14:34 41.7 °F 31.5 °F 30.05 in West 7.0 mph 17.0 mph 67% 0.00 in
14:39 41.7 °F 31.5 °F 30.05 in West 7.0 mph 15.0 mph 67% 0.00 in
14:44 41.9 °F 31.4 °F 30.05 in West 7.0 mph 15.0 mph 66% 0.00 in
14:49 42.2 °F 31.6 °F 30.05 in West 7.0 mph 15.0 mph 66% 0.00 in
14:54 42.2 °F 31.3 °F 30.05 in West 6.0 mph 13.0 mph 65% 0.00 in
14:59 42.1 °F 30.8 °F 30.05 in WNW 18.0 mph 18.0 mph 64% 0.00 in
15:04 42.0 °F 29.9 °F 30.06 in WSW 11.0 mph 21.0 mph 62% 0.00 in
15:09 41.8 °F 29.7 °F 30.06 in West 10.0 mph 21.0 mph 62% 0.00 in
15:14 41.7 °F 30.0 °F 30.06 in West 8.0 mph 16.0 mph 63% 0.00 in
15:19 41.8 °F 30.1 °F 30.07 in West 8.0 mph 15.0 mph 63% 0.00 in
15:24 41.9 °F 30.2 °F 30.07 in West 3.0 mph 13.0 mph 63% 0.00 in
15:29 41.9 °F 30.2 °F 30.07 in WNW 7.0 mph 20.0 mph 63% 0.00 in
15:34 41.8 °F 30.1 °F 30.08 in WSW 3.0 mph 15.0 mph 63% 0.00 in
15:39 41.9 °F 31.0 °F 30.08 in West 4.0 mph 15.0 mph 65% 0.00 in
15:44 41.8 °F 30.5 °F 30.08 in WSW 4.0 mph 13.0 mph 64% 0.00 in
15:49 41.9 °F 30.6 °F 30.08 in West 5.0 mph 13.0 mph 64% 0.00 in
15:54 41.9 °F 30.6 °F 30.08 in West 5.0 mph 9.0 mph 64% 0.00 in
15:59 41.9 °F 30.6 °F 30.08 in SW 5.0 mph 10.0 mph 64% 0.00 in
16:04 42.0 °F 30.7 °F 30.08 in West 1.0 mph 8.0 mph 64% 0.00 in
16:09 42.0 °F 30.7 °F 30.09 in WSW 6.0 mph 9.0 mph 64% 0.00 in
16:14 42.0 °F 29.9 °F 30.09 in WSW 5.0 mph 14.0 mph 62% 0.00 in
16:19 42.1 °F 30.0 °F 30.09 in WSW 6.0 mph 14.0 mph 62% 0.00 in
16:24 42.1 °F 30.4 °F 30.09 in West 2.0 mph 9.0 mph 63% 0.00 in
16:29 42.1 °F 30.8 °F 30.09 in WSW 1.0 mph 7.0 mph 64% 0.00 in
16:34 42.0 °F 30.7 °F 30.09 in WSW 3.0 mph 6.0 mph 64% 0.00 in
16:39 42.0 °F 30.3 °F 30.09 in SSW 7.0 mph 11.0 mph 63% 0.00 in
16:44 42.0 °F 30.3 °F 30.09 in WSW 5.0 mph 9.0 mph 63% 0.00 in
16:49 42.1 °F 30.0 °F 30.09 in WSW 4.0 mph 9.0 mph 62% 0.00 in
16:54 42.2 °F 29.7 °F 30.09 in WSW 4.0 mph 10.0 mph 61% 0.00 in
16:59 42.2 °F 29.7 °F 30.09 in WSW 5.0 mph 10.0 mph 61% 0.00 in
17:04 42.2 °F 29.7 °F 30.09 in WSW 4.0 mph 10.0 mph 61% 0.00 in
17:09 42.3 °F 29.8 °F 30.09 in WSW 3.0 mph 7.0 mph 61% 0.00 in
17:14 42.3 °F 29.8 °F 30.09 in WSW 5.0 mph 8.0 mph 61% 0.00 in
17:19 42.2 °F 30.1 °F 30.09 in SW 4.0 mph 8.0 mph 62% 0.00 in
17:24 42.2 °F 29.7 °F 30.10 in SW 6.0 mph 11.0 mph 61% 0.00 in
17:29 42.1 °F 29.6 °F 30.10 in SW 3.0 mph 9.0 mph 61% 0.00 in
17:34 42.1 °F 29.2 °F 30.10 in WSW 3.0 mph 10.0 mph 60% 0.00 in
17:39 42.1 °F 29.6 °F 30.10 in West 2.0 mph 8.0 mph 61% 0.00 in
17:44 42.0 °F 29.1 °F 30.10 in WSW 1.0 mph 9.0 mph 60% 0.00 in
17:49 42.0 °F 29.1 °F 30.10 in WSW 4.0 mph 9.0 mph 60% 0.00 in
17:54 42.0 °F 28.7 °F 30.10 in WSW 4.0 mph 9.0 mph 59% 0.00 in
17:59 42.0 °F 28.7 °F 30.11 in West 7.0 mph 9.0 mph 59% 0.00 in
18:04 42.0 °F 28.3 °F 30.11 in WSW 2.0 mph 8.0 mph 58% 0.00 in
18:09 42.0 °F 28.3 °F 30.11 in West 5.0 mph 12.0 mph 58% 0.00 in
18:14 42.0 °F 28.3 °F 30.11 in WSW 5.0 mph 9.0 mph 58% 0.00 in
18:19 42.0 °F 27.4 °F 30.11 in SW 9.0 mph 10.0 mph 56% 0.00 in
18:24 42.2 °F 27.6 °F 30.12 in WSW 5.0 mph 11.0 mph 56% 0.00 in
18:29 42.2 °F 28.0 °F 30.12 in WSW 4.0 mph 11.0 mph 57% 0.00 in
18:34 42.1 °F 27.9 °F 30.12 in West 3.0 mph 9.0 mph 57% 0.00 in
18:39 42.0 °F 28.3 °F 30.12 in SW 3.0 mph 6.0 mph 58% 0.00 in
18:44 41.9 °F 28.6 °F 30.12 in SSW 1.0 mph 5.0 mph 59% 0.00 in
18:49 41.4 °F 31.6 °F 30.12 in Calm   4.0 mph 68% 0.00 in
18:54 40.7 °F 32.4 °F 30.12 in South 1.0 mph 5.0 mph 72% 0.00 in
18:59 40.1 °F 32.5 °F 30.12 in South 1.0 mph 5.0 mph 74% 0.00 in
19:04 39.9 °F 33.3 °F 30.13 in South 2.0 mph 6.0 mph 77% 0.00 in
19:09 39.7 °F 33.4 °F 30.13 in SSW 2.0 mph 4.0 mph 78% 0.00 in
19:14 39.5 °F 33.2 °F 30.13 in SSW 2.0 mph 5.0 mph 78% 0.00 in
19:19 39.5 °F 33.2 °F 30.13 in Calm   3.0 mph 78% 0.00 in
19:24 39.5 °F 33.2 °F 30.14 in South 2.0 mph 4.0 mph 78% 0.00 in
19:29 39.6 °F 33.3 °F 30.14 in South 1.0 mph 4.0 mph 78% 0.00 in
19:34 39.6 °F 32.7 °F 30.14 in Calm   3.0 mph 76% 0.00 in
19:39 39.8 °F 32.8 °F 30.14 in Calm   1.0 mph 76% 0.00 in
19:44 39.8 °F 32.2 °F 30.14 in Calm     74% 0.00 in
19:49 40.0 °F 31.4 °F 30.14 in Calm     71% 0.00 in
19:54 40.1 °F 31.8 °F 30.14 in Calm     72% 0.00 in
19:59 40.1 °F 31.8 °F 30.14 in South 2.0 mph 4.0 mph 72% 0.00 in
20:04 40.1 °F 31.8 °F 30.14 in South 1.0 mph 4.0 mph 72% 0.00 in
20:09 40.2 °F 32.6 °F 30.14 in SSW 1.0 mph 4.0 mph 74% 0.00 in
20:14 40.2 °F 32.6 °F 30.14 in Calm   4.0 mph 74% 0.00 in
20:19 40.2 °F 32.6 °F 30.14 in SSW 1.0 mph 3.0 mph 74% 0.00 in
20:24 40.3 °F 32.3 °F 30.15 in Calm   3.0 mph 73% 0.00 in
20:29 40.4 °F 32.4 °F 30.15 in SW 1.0 mph 2.0 mph 73% 0.00 in
20:34 40.5 °F 32.5 °F 30.15 in SW 1.0 mph 2.0 mph 73% 0.00 in
20:39 40.4 °F 32.8 °F 30.15 in SSW 1.0 mph 3.0 mph 74% 0.00 in
20:44 40.4 °F 32.4 °F 30.15 in SSW 1.0 mph 5.0 mph 73% 0.00 in
20:49 40.6 °F 33.0 °F 30.16 in SSW 2.0 mph 5.0 mph 74% 0.00 in
20:54 40.5 °F 32.5 °F 30.16 in SSW 2.0 mph 5.0 mph 73% 0.00 in
20:59 40.6 °F 31.6 °F 30.16 in Calm   5.0 mph 70% 0.00 in
21:04 40.7 °F 31.3 °F 30.16 in Calm   4.0 mph 69% 0.00 in
21:09 40.7 °F 31.3 °F 30.16 in SW 1.0 mph 5.0 mph 69% 0.00 in
21:14 40.7 °F 31.7 °F 30.16 in SSW 1.0 mph 5.0 mph 70% 0.00 in
21:19 40.7 °F 32.4 °F 30.17 in SW 3.0 mph 4.0 mph 72% 0.00 in
21:24 40.6 °F 32.6 °F 30.17 in Calm   4.0 mph 73% 0.00 in
21:29 40.6 °F 32.6 °F 30.17 in SW 1.0 mph 3.0 mph 73% 0.00 in
21:34 40.4 °F 32.4 °F 30.17 in South 1.0 mph 4.0 mph 73% 0.00 in
21:39 40.3 °F 32.7 °F 30.17 in SSW 2.0 mph 4.0 mph 74% 0.00 in
21:44 40.3 °F 32.0 °F 30.17 in SSW 2.0 mph 5.0 mph 72% 0.00 in
21:49 40.5 °F 32.2 °F 30.17 in SW 2.0 mph 5.0 mph 72% 0.00 in
21:54 40.5 °F 32.2 °F 30.17 in SW 1.0 mph 4.0 mph 72% 0.00 in
21:59 40.4 °F 32.1 °F 30.17 in SSW 2.0 mph 6.0 mph 72% 0.00 in
22:04 40.3 °F 31.6 °F 30.17 in SSW 4.0 mph 6.0 mph 71% 0.00 in
22:09 40.3 °F 31.6 °F 30.18 in South 4.0 mph 8.0 mph 71% 0.00 in
22:14 40.4 °F 31.4 °F 30.18 in SSW 3.0 mph 8.0 mph 70% 0.00 in
22:19 40.4 °F 31.4 °F 30.18 in SSW 3.0 mph 8.0 mph 70% 0.00 in
22:24 40.4 °F 31.4 °F 30.18 in SSW 9.0 mph 9.0 mph 70% 0.00 in
22:29 40.4 °F 31.0 °F 30.18 in SW 3.0 mph 10.0 mph 69% 0.00 in
22:34 40.3 °F 30.9 °F 30.19 in SSW 5.0 mph 13.0 mph 69% 0.00 in
22:39 40.3 °F 30.9 °F 30.19 in SSW 2.0 mph 8.0 mph 69% 0.00 in
22:44 40.2 °F 30.5 °F 30.18 in SSW 4.0 mph 9.0 mph 68% 0.00 in
22:49 40.1 °F 30.7 °F 30.19 in South 3.0 mph 9.0 mph 69% 0.00 in
22:54 40.0 °F 30.6 °F 30.18 in SSW 3.0 mph 8.0 mph 69% 0.00 in
22:59 40.0 °F 30.6 °F 30.18 in SSW 3.0 mph 7.0 mph 69% 0.00 in
23:04 40.1 °F 30.4 °F 30.18 in SSW 3.0 mph 7.0 mph 68% 0.00 in
23:09 40.1 °F 30.4 °F 30.19 in SSW 3.0 mph 8.0 mph 68% 0.00 in
23:20 40.0 °F 30.3 °F 30.20 in SSW 3.0 mph 7.0 mph 68% 0.00 in
23:24 40.0 °F 30.3 °F 30.20 in SW 1.0 mph 7.0 mph 68% 0.00 in
23:29 40.0 °F 30.3 °F 30.20 in SSW 2.0 mph 6.0 mph 68% 0.00 in
23:34 40.0 °F 30.3 °F 30.20 in SSW 3.0 mph 7.0 mph 68% 0.00 in
23:39 39.9 °F 30.2 °F 30.19 in South 3.0 mph 7.0 mph 68% 0.00 in
23:44 39.9 °F 30.2 °F 30.19 in SW 3.0 mph 8.0 mph 68% 0.00 in
23:49 39.9 °F 30.2 °F 30.19 in SSW 1.0 mph 7.0 mph 68% 0.00 in
23:54 39.9 °F 30.2 °F 30.19 in SSW 3.0 mph 7.0 mph 68% 0.00 in
23:59 39.8 °F 30.1 °F 30.19 in SSW 2.0 mph 4.0 mph 68% 0.00 in
Buffalo, New York, USA
Compliments of Weather Underground - 2.5 mb